sensor_id;sensor_type;location;lat;lon;timestamp;P1;durP1;ratioP1;P2;durP2;ratioP2
67514;SDS011;60646;55.802;37.032;2022-08-21T00:01:57;13.15;;;5.70;;
67514;SDS011;60646;55.802;37.032;2022-08-21T00:04:23;9.48;;;5.78;;
67514;SDS011;60646;55.802;37.032;2022-08-21T00:06:49;11.77;;;6.03;;
67514;SDS011;60646;55.802;37.032;2022-08-21T00:09:16;9.80;;;5.65;;
67514;SDS011;60646;55.802;37.032;2022-08-21T00:11:43;9.90;;;5.93;;
67514;SDS011;60646;55.802;37.032;2022-08-21T00:14:09;13.98;;;6.80;;
67514;SDS011;60646;55.802;37.032;2022-08-21T00:16:36;10.63;;;6.88;;
67514;SDS011;60646;55.802;37.032;2022-08-21T00:19:02;8.98;;;6.18;;
67514;SDS011;60646;55.802;37.032;2022-08-21T00:21:28;10.82;;;6.30;;
67514;SDS011;60646;55.802;37.032;2022-08-21T00:23:54;13.10;;;7.07;;
67514;SDS011;60646;55.802;37.032;2022-08-21T00:26:20;11.00;;;6.70;;
67514;SDS011;60646;55.802;37.032;2022-08-21T00:28:46;10.65;;;6.28;;
67514;SDS011;60646;55.802;37.032;2022-08-21T00:31:14;10.88;;;6.70;;
67514;SDS011;60646;55.802;37.032;2022-08-21T00:33:40;13.15;;;8.32;;
67514;SDS011;60646;55.802;37.032;2022-08-21T00:36:07;12.93;;;7.38;;
67514;SDS011;60646;55.802;37.032;2022-08-21T00:38:33;14.30;;;7.45;;
67514;SDS011;60646;55.802;37.032;2022-08-21T00:41:00;10.60;;;7.25;;
67514;SDS011;60646;55.802;37.032;2022-08-21T00:43:29;15.85;;;7.93;;
67514;SDS011;60646;55.802;37.032;2022-08-21T00:45:58;13.27;;;8.18;;
67514;SDS011;60646;55.802;37.032;2022-08-21T00:48:25;14.68;;;7.50;;
67514;SDS011;60646;55.802;37.032;2022-08-21T00:50:57;15.15;;;7.70;;
67514;SDS011;60646;55.802;37.032;2022-08-21T00:53:23;12.02;;;7.97;;
67514;SDS011;60646;55.802;37.032;2022-08-21T00:55:50;12.82;;;8.18;;
67514;SDS011;60646;55.802;37.032;2022-08-21T00:58:17;13.98;;;8.45;;
67514;SDS011;60646;55.802;37.032;2022-08-21T01:00:44;15.30;;;8.85;;
67514;SDS011;60646;55.802;37.032;2022-08-21T01:03:13;13.73;;;8.80;;
67514;SDS011;60646;55.802;37.032;2022-08-21T01:05:41;18.38;;;9.55;;
67514;SDS011;60646;55.802;37.032;2022-08-21T01:08:07;16.92;;;9.48;;
67514;SDS011;60646;55.802;37.032;2022-08-21T01:10:34;16.92;;;9.15;;
67514;SDS011;60646;55.802;37.032;2022-08-21T01:13:01;16.98;;;10.63;;
67514;SDS011;60646;55.802;37.032;2022-08-21T01:15:31;16.90;;;10.73;;
67514;SDS011;60646;55.802;37.032;2022-08-21T01:17:59;22.20;;;11.48;;
67514;SDS011;60646;55.802;37.032;2022-08-21T01:20:25;18.73;;;10.13;;
67514;SDS011;60646;55.802;37.032;2022-08-21T01:22:52;19.25;;;11.30;;
67514;SDS011;60646;55.802;37.032;2022-08-21T01:25:17;17.45;;;10.90;;
67514;SDS011;60646;55.802;37.032;2022-08-21T01:27:46;15.55;;;10.98;;
67514;SDS011;60646;55.802;37.032;2022-08-21T01:30:14;20.35;;;11.02;;
67514;SDS011;60646;55.802;37.032;2022-08-21T01:32:47;18.23;;;11.43;;
67514;SDS011;60646;55.802;37.032;2022-08-21T01:35:14;16.15;;;10.43;;
67514;SDS011;60646;55.802;37.032;2022-08-21T01:37:41;18.85;;;12.00;;
67514;SDS011;60646;55.802;37.032;2022-08-21T01:40:08;17.38;;;11.10;;
67514;SDS011;60646;55.802;37.032;2022-08-21T01:42:36;17.95;;;11.07;;
67514;SDS011;60646;55.802;37.032;2022-08-21T01:45:03;21.63;;;12.85;;
67514;SDS011;60646;55.802;37.032;2022-08-21T01:47:30;22.85;;;12.57;;
67514;SDS011;60646;55.802;37.032;2022-08-21T01:49:56;20.67;;;12.60;;
67514;SDS011;60646;55.802;37.032;2022-08-21T01:52:21;25.27;;;12.55;;
67514;SDS011;60646;55.802;37.032;2022-08-21T01:54:47;22.48;;;13.77;;
67514;SDS011;60646;55.802;37.032;2022-08-21T01:57:13;24.30;;;13.50;;
67514;SDS011;60646;55.802;37.032;2022-08-21T01:59:40;23.00;;;14.40;;
67514;SDS011;60646;55.802;37.032;2022-08-21T02:02:06;25.48;;;14.30;;
67514;SDS011;60646;55.802;37.032;2022-08-21T02:04:32;20.75;;;13.85;;
67514;SDS011;60646;55.802;37.032;2022-08-21T02:06:59;27.67;;;15.02;;
67514;SDS011;60646;55.802;37.032;2022-08-21T02:09:25;24.38;;;15.38;;
67514;SDS011;60646;55.802;37.032;2022-08-21T02:11:51;27.60;;;16.35;;
67514;SDS011;60646;55.802;37.032;2022-08-21T02:14:17;30.58;;;16.60;;
67514;SDS011;60646;55.802;37.032;2022-08-21T02:16:43;24.05;;;15.10;;
67514;SDS011;60646;55.802;37.032;2022-08-21T02:19:11;24.23;;;15.05;;
67514;SDS011;60646;55.802;37.032;2022-08-21T02:21:38;24.10;;;15.00;;
67514;SDS011;60646;55.802;37.032;2022-08-21T02:24:04;24.15;;;15.40;;
67514;SDS011;60646;55.802;37.032;2022-08-21T02:26:31;26.02;;;15.05;;
67514;SDS011;60646;55.802;37.032;2022-08-21T02:28:57;25.75;;;15.73;;
67514;SDS011;60646;55.802;37.032;2022-08-21T02:31:22;25.17;;;15.77;;
67514;SDS011;60646;55.802;37.032;2022-08-21T02:33:49;27.52;;;15.82;;
67514;SDS011;60646;55.802;37.032;2022-08-21T02:36:15;23.63;;;14.93;;
67514;SDS011;60646;55.802;37.032;2022-08-21T02:38:42;27.90;;;15.27;;
67514;SDS011;60646;55.802;37.032;2022-08-21T02:41:10;25.10;;;15.10;;
67514;SDS011;60646;55.802;37.032;2022-08-21T02:43:38;25.92;;;15.45;;
67514;SDS011;60646;55.802;37.032;2022-08-21T02:46:05;24.50;;;15.48;;
67514;SDS011;60646;55.802;37.032;2022-08-21T02:48:32;22.88;;;14.23;;
67514;SDS011;60646;55.802;37.032;2022-08-21T02:51:00;23.08;;;14.88;;
67514;SDS011;60646;55.802;37.032;2022-08-21T02:53:28;24.35;;;15.10;;
67514;SDS011;60646;55.802;37.032;2022-08-21T02:55:56;22.33;;;14.57;;
67514;SDS011;60646;55.802;37.032;2022-08-21T02:58:25;24.67;;;15.30;;
67514;SDS011;60646;55.802;37.032;2022-08-21T03:00:54;23.35;;;15.30;;
67514;SDS011;60646;55.802;37.032;2022-08-21T03:03:19;28.85;;;16.23;;
67514;SDS011;60646;55.802;37.032;2022-08-21T03:05:46;20.52;;;14.23;;
67514;SDS011;60646;55.802;37.032;2022-08-21T03:08:13;21.88;;;14.02;;
67514;SDS011;60646;55.802;37.032;2022-08-21T03:10:42;25.17;;;13.73;;
67514;SDS011;60646;55.802;37.032;2022-08-21T03:13:10;22.85;;;14.38;;
67514;SDS011;60646;55.802;37.032;2022-08-21T03:15:37;23.98;;;14.82;;
67514;SDS011;60646;55.802;37.032;2022-08-21T03:18:04;24.75;;;15.15;;
67514;SDS011;60646;55.802;37.032;2022-08-21T03:20:30;26.20;;;14.75;;
67514;SDS011;60646;55.802;37.032;2022-08-21T03:22:57;25.70;;;15.05;;
67514;SDS011;60646;55.802;37.032;2022-08-21T03:25:24;26.55;;;14.32;;
67514;SDS011;60646;55.802;37.032;2022-08-21T03:27:51;23.00;;;14.20;;
67514;SDS011;60646;55.802;37.032;2022-08-21T03:30:17;21.90;;;13.93;;
67514;SDS011;60646;55.802;37.032;2022-08-21T03:32:45;22.65;;;14.80;;
67514;SDS011;60646;55.802;37.032;2022-08-21T03:35:11;21.83;;;14.77;;
67514;SDS011;60646;55.802;37.032;2022-08-21T03:37:37;23.45;;;14.20;;
67514;SDS011;60646;55.802;37.032;2022-08-21T03:40:04;24.30;;;14.52;;
67514;SDS011;60646;55.802;37.032;2022-08-21T03:42:31;24.15;;;14.02;;
67514;SDS011;60646;55.802;37.032;2022-08-21T03:44:56;24.83;;;13.68;;
67514;SDS011;60646;55.802;37.032;2022-08-21T03:47:22;27.00;;;14.82;;
67514;SDS011;60646;55.802;37.032;2022-08-21T03:49:48;21.55;;;13.38;;
67514;SDS011;60646;55.802;37.032;2022-08-21T03:52:14;25.73;;;13.27;;
67514;SDS011;60646;55.802;37.032;2022-08-21T03:54:41;23.23;;;13.88;;
67514;SDS011;60646;55.802;37.032;2022-08-21T03:57:07;20.30;;;12.73;;
67514;SDS011;60646;55.802;37.032;2022-08-21T03:59:34;22.10;;;13.52;;
67514;SDS011;60646;55.802;37.032;2022-08-21T04:02:02;22.73;;;13.57;;
67514;SDS011;60646;55.802;37.032;2022-08-21T04:04:30;22.27;;;12.88;;
67514;SDS011;60646;55.802;37.032;2022-08-21T04:06:56;23.77;;;12.77;;
67514;SDS011;60646;55.802;37.032;2022-08-21T04:09:23;23.58;;;13.70;;
67514;SDS011;60646;55.802;37.032;2022-08-21T04:11:49;20.83;;;12.60;;
67514;SDS011;60646;55.802;37.032;2022-08-21T04:14:15;24.65;;;12.35;;
67514;SDS011;60646;55.802;37.032;2022-08-21T04:16:42;19.52;;;12.05;;
67514;SDS011;60646;55.802;37.032;2022-08-21T04:19:12;18.90;;;12.50;;
67514;SDS011;60646;55.802;37.032;2022-08-21T04:21:38;22.23;;;13.07;;
67514;SDS011;60646;55.802;37.032;2022-08-21T04:24:06;20.83;;;13.00;;
67514;SDS011;60646;55.802;37.032;2022-08-21T04:26:34;16.45;;;11.00;;
67514;SDS011;60646;55.802;37.032;2022-08-21T04:29:00;21.38;;;11.93;;
67514;SDS011;60646;55.802;37.032;2022-08-21T04:34:26;19.83;;;10.93;;
67514;SDS011;60646;55.802;37.032;2022-08-21T04:36:52;20.20;;;11.38;;
67514;SDS011;60646;55.802;37.032;2022-08-21T04:39:19;20.55;;;11.98;;
67514;SDS011;60646;55.802;37.032;2022-08-21T04:42:11;15.48;;;10.00;;
67514;SDS011;60646;55.802;37.032;2022-08-21T04:44:37;18.77;;;11.90;;
67514;SDS011;60646;55.802;37.032;2022-08-21T04:47:03;20.70;;;11.52;;
67514;SDS011;60646;55.802;37.032;2022-08-21T04:49:29;17.75;;;11.32;;
67514;SDS011;60646;55.802;37.032;2022-08-21T04:51:59;21.42;;;11.85;;
67514;SDS011;60646;55.802;37.032;2022-08-21T04:54:28;19.30;;;11.60;;
67514;SDS011;60646;55.802;37.032;2022-08-21T04:56:56;20.55;;;12.20;;
67514;SDS011;60646;55.802;37.032;2022-08-21T04:59:33;16.52;;;11.20;;
67514;SDS011;60646;55.802;37.032;2022-08-21T05:02:06;20.13;;;11.15;;
67514;SDS011;60646;55.802;37.032;2022-08-21T05:05:04;18.00;;;9.95;;
67514;SDS011;60646;55.802;37.032;2022-08-21T05:07:30;18.35;;;11.10;;
67514;SDS011;60646;55.802;37.032;2022-08-21T05:09:58;16.83;;;10.23;;
67514;SDS011;60646;55.802;37.032;2022-08-21T05:12:24;17.75;;;10.48;;
67514;SDS011;60646;55.802;37.032;2022-08-21T05:14:50;18.25;;;9.95;;
67514;SDS011;60646;55.802;37.032;2022-08-21T05:17:16;15.95;;;9.95;;
67514;SDS011;60646;55.802;37.032;2022-08-21T05:19:42;15.82;;;9.80;;
67514;SDS011;60646;55.802;37.032;2022-08-21T05:22:07;15.95;;;10.18;;
67514;SDS011;60646;55.802;37.032;2022-08-21T05:24:34;15.73;;;9.60;;
67514;SDS011;60646;55.802;37.032;2022-08-21T05:27:00;14.93;;;9.32;;
67514;SDS011;60646;55.802;37.032;2022-08-21T05:29:26;13.40;;;9.05;;
67514;SDS011;60646;55.802;37.032;2022-08-21T05:31:51;14.80;;;9.15;;
67514;SDS011;60646;55.802;37.032;2022-08-21T05:34:18;16.35;;;9.85;;
67514;SDS011;60646;55.802;37.032;2022-08-21T05:36:46;12.77;;;8.15;;
67514;SDS011;60646;55.802;37.032;2022-08-21T05:39:12;13.65;;;9.05;;
67514;SDS011;60646;55.802;37.032;2022-08-21T05:41:38;13.80;;;8.63;;
67514;SDS011;60646;55.802;37.032;2022-08-21T05:44:04;15.38;;;8.85;;
67514;SDS011;60646;55.802;37.032;2022-08-21T05:46:30;15.02;;;8.38;;
67514;SDS011;60646;55.802;37.032;2022-08-21T05:48:55;14.65;;;8.23;;
67514;SDS011;60646;55.802;37.032;2022-08-21T05:51:21;12.82;;;8.57;;
67514;SDS011;60646;55.802;37.032;2022-08-21T05:53:47;12.95;;;8.02;;
67514;SDS011;60646;55.802;37.032;2022-08-21T05:56:13;10.55;;;7.18;;
67514;SDS011;60646;55.802;37.032;2022-08-21T05:58:39;13.25;;;7.68;;
67514;SDS011;60646;55.802;37.032;2022-08-21T06:01:05;13.10;;;7.93;;
67514;SDS011;60646;55.802;37.032;2022-08-21T06:03:32;10.57;;;7.57;;
67514;SDS011;60646;55.802;37.032;2022-08-21T06:06:00;11.88;;;7.40;;
67514;SDS011;60646;55.802;37.032;2022-08-21T06:08:26;11.50;;;6.80;;
67514;SDS011;60646;55.802;37.032;2022-08-21T06:10:53;10.07;;;5.95;;
67514;SDS011;60646;55.802;37.032;2022-08-21T06:13:20;10.43;;;6.57;;
67514;SDS011;60646;55.802;37.032;2022-08-21T06:15:47;12.25;;;7.05;;
67514;SDS011;60646;55.802;37.032;2022-08-21T06:18:13;10.95;;;6.70;;
67514;SDS011;60646;55.802;37.032;2022-08-21T06:20:40;10.73;;;6.68;;
67514;SDS011;60646;55.802;37.032;2022-08-21T06:23:06;8.63;;;5.63;;
67514;SDS011;60646;55.802;37.032;2022-08-21T06:25:32;11.48;;;6.90;;
67514;SDS011;60646;55.802;37.032;2022-08-21T06:28:02;11.88;;;6.68;;
67514;SDS011;60646;55.802;37.032;2022-08-21T06:30:32;8.95;;;5.72;;
67514;SDS011;60646;55.802;37.032;2022-08-21T06:32:59;13.05;;;7.35;;
67514;SDS011;60646;55.802;37.032;2022-08-21T06:35:25;10.45;;;6.45;;
67514;SDS011;60646;55.802;37.032;2022-08-21T06:37:50;10.32;;;6.90;;
67514;SDS011;60646;55.802;37.032;2022-08-21T06:40:17;10.23;;;6.45;;
67514;SDS011;60646;55.802;37.032;2022-08-21T06:42:43;11.23;;;6.43;;
67514;SDS011;60646;55.802;37.032;2022-08-21T06:45:09;10.15;;;6.35;;
67514;SDS011;60646;55.802;37.032;2022-08-21T06:47:35;9.82;;;6.75;;
67514;SDS011;60646;55.802;37.032;2022-08-21T06:50:01;11.73;;;6.30;;
67514;SDS011;60646;55.802;37.032;2022-08-21T06:52:29;11.50;;;7.35;;
67514;SDS011;60646;55.802;37.032;2022-08-21T06:54:54;11.63;;;7.05;;
67514;SDS011;60646;55.802;37.032;2022-08-21T06:57:20;11.13;;;6.97;;
67514;SDS011;60646;55.802;37.032;2022-08-21T06:59:47;10.00;;;6.70;;
67514;SDS011;60646;55.802;37.032;2022-08-21T07:02:12;11.38;;;7.03;;
67514;SDS011;60646;55.802;37.032;2022-08-21T07:04:38;10.68;;;6.82;;
67514;SDS011;60646;55.802;37.032;2022-08-21T07:07:04;12.68;;;7.30;;
67514;SDS011;60646;55.802;37.032;2022-08-21T07:09:30;10.10;;;6.60;;
67514;SDS011;60646;55.802;37.032;2022-08-21T07:11:55;9.25;;;6.03;;
67514;SDS011;60646;55.802;37.032;2022-08-21T07:14:22;10.43;;;6.18;;
67514;SDS011;60646;55.802;37.032;2022-08-21T07:16:48;9.93;;;6.53;;
67514;SDS011;60646;55.802;37.032;2022-08-21T07:19:15;11.25;;;7.53;;
67514;SDS011;60646;55.802;37.032;2022-08-21T07:21:41;9.70;;;6.93;;
67514;SDS011;60646;55.802;37.032;2022-08-21T07:24:07;10.80;;;6.63;;
67514;SDS011;60646;55.802;37.032;2022-08-21T07:26:33;11.88;;;7.45;;
67514;SDS011;60646;55.802;37.032;2022-08-21T07:28:58;9.52;;;6.75;;
67514;SDS011;60646;55.802;37.032;2022-08-21T07:31:24;11.70;;;6.35;;
67514;SDS011;60646;55.802;37.032;2022-08-21T07:33:51;12.38;;;6.38;;
67514;SDS011;60646;55.802;37.032;2022-08-21T07:36:17;12.23;;;6.88;;
67514;SDS011;60646;55.802;37.032;2022-08-21T07:38:43;10.20;;;6.57;;
67514;SDS011;60646;55.802;37.032;2022-08-21T07:41:13;10.05;;;6.25;;
67514;SDS011;60646;55.802;37.032;2022-08-21T07:43:44;9.75;;;5.95;;
67514;SDS011;60646;55.802;37.032;2022-08-21T07:46:10;10.90;;;6.15;;
67514;SDS011;60646;55.802;37.032;2022-08-21T07:48:37;8.52;;;6.10;;
67514;SDS011;60646;55.802;37.032;2022-08-21T07:51:05;10.68;;;6.35;;
67514;SDS011;60646;55.802;37.032;2022-08-21T07:53:33;8.73;;;6.05;;
67514;SDS011;60646;55.802;37.032;2022-08-21T07:56:00;11.60;;;6.38;;
67514;SDS011;60646;55.802;37.032;2022-08-21T07:58:26;10.05;;;6.20;;
67514;SDS011;60646;55.802;37.032;2022-08-21T08:00:52;8.65;;;5.88;;
67514;SDS011;60646;55.802;37.032;2022-08-21T08:03:18;15.40;;;6.60;;
67514;SDS011;60646;55.802;37.032;2022-08-21T08:05:44;8.93;;;6.47;;
67514;SDS011;60646;55.802;37.032;2022-08-21T08:08:09;10.68;;;6.93;;
67514;SDS011;60646;55.802;37.032;2022-08-21T08:10:35;10.15;;;7.38;;
67514;SDS011;60646;55.802;37.032;2022-08-21T08:13:03;21.13;;;7.47;;
67514;SDS011;60646;55.802;37.032;2022-08-21T08:15:29;7.97;;;6.15;;
67514;SDS011;60646;55.802;37.032;2022-08-21T08:17:55;9.07;;;6.22;;
67514;SDS011;60646;55.802;37.032;2022-08-21T08:20:21;14.50;;;7.40;;
67514;SDS011;60646;55.802;37.032;2022-08-21T08:22:50;12.82;;;7.25;;
67514;SDS011;60646;55.802;37.032;2022-08-21T08:25:16;10.55;;;6.65;;
67514;SDS011;60646;55.802;37.032;2022-08-21T08:27:43;13.45;;;6.82;;
67514;SDS011;60646;55.802;37.032;2022-08-21T08:30:10;12.23;;;6.90;;
67514;SDS011;60646;55.802;37.032;2022-08-21T08:32:37;10.77;;;7.35;;
67514;SDS011;60646;55.802;37.032;2022-08-21T08:35:03;12.00;;;7.35;;
67514;SDS011;60646;55.802;37.032;2022-08-21T08:37:30;12.20;;;7.68;;
67514;SDS011;60646;55.802;37.032;2022-08-21T08:39:57;11.30;;;7.53;;
67514;SDS011;60646;55.802;37.032;2022-08-21T08:42:30;12.80;;;7.72;;
67514;SDS011;60646;55.802;37.032;2022-08-21T08:45:15;12.80;;;7.43;;
67514;SDS011;60646;55.802;37.032;2022-08-21T08:47:44;9.98;;;7.38;;
67514;SDS011;60646;55.802;37.032;2022-08-21T08:50:25;9.07;;;6.60;;
67514;SDS011;60646;55.802;37.032;2022-08-21T08:53:00;17.27;;;8.00;;
67514;SDS011;60646;55.802;37.032;2022-08-21T08:55:43;12.55;;;8.25;;
67514;SDS011;60646;55.802;37.032;2022-08-21T08:58:16;13.65;;;7.53;;
67514;SDS011;60646;55.802;37.032;2022-08-21T09:00:48;9.65;;;7.45;;
67514;SDS011;60646;55.802;37.032;2022-08-21T09:03:16;11.77;;;7.68;;
67514;SDS011;60646;55.802;37.032;2022-08-21T09:05:46;13.65;;;7.72;;
67514;SDS011;60646;55.802;37.032;2022-08-21T09:13:56;10.23;;;6.60;;
67514;SDS011;60646;55.802;37.032;2022-08-21T09:27:33;15.57;;;9.25;;
67514;SDS011;60646;55.802;37.032;2022-08-21T09:29:58;12.30;;;8.13;;
67514;SDS011;60646;55.802;37.032;2022-08-21T09:32:26;17.15;;;8.90;;
67514;SDS011;60646;55.802;37.032;2022-08-21T09:35:06;14.07;;;9.07;;
67514;SDS011;60646;55.802;37.032;2022-08-21T09:37:47;12.80;;;8.63;;
67514;SDS011;60646;55.802;37.032;2022-08-21T09:42:59;13.50;;;8.27;;
67514;SDS011;60646;55.802;37.032;2022-08-21T09:45:27;13.73;;;8.38;;
67514;SDS011;60646;55.802;37.032;2022-08-21T09:47:54;16.88;;;8.52;;
67514;SDS011;60646;55.802;37.032;2022-08-21T09:50:24;11.20;;;8.18;;
67514;SDS011;60646;55.802;37.032;2022-08-21T09:52:53;13.48;;;8.20;;
67514;SDS011;60646;55.802;37.032;2022-08-21T09:55:31;17.00;;;9.75;;
67514;SDS011;60646;55.802;37.032;2022-08-21T09:58:18;15.98;;;8.90;;
67514;SDS011;60646;55.802;37.032;2022-08-21T10:00:45;15.60;;;9.27;;
67514;SDS011;60646;55.802;37.032;2022-08-21T10:03:21;13.82;;;8.85;;
67514;SDS011;60646;55.802;37.032;2022-08-21T10:08:28;13.75;;;8.75;;
67514;SDS011;60646;55.802;37.032;2022-08-21T10:10:57;16.17;;;10.35;;
67514;SDS011;60646;55.802;37.032;2022-08-21T10:27:52;11.10;;;8.75;;
67514;SDS011;60646;55.802;37.032;2022-08-21T10:38:58;15.05;;;8.85;;
67514;SDS011;60646;55.802;37.032;2022-08-21T10:44:26;13.52;;;7.95;;
67514;SDS011;60646;55.802;37.032;2022-08-21T10:47:23;11.77;;;8.23;;
67514;SDS011;60646;55.802;37.032;2022-08-21T10:55:17;13.23;;;6.75;;
67514;SDS011;60646;55.802;37.032;2022-08-21T11:00:16;9.98;;;5.90;;
67514;SDS011;60646;55.802;37.032;2022-08-21T11:03:07;11.32;;;6.18;;
67514;SDS011;60646;55.802;37.032;2022-08-21T11:05:42;16.08;;;6.32;;
67514;SDS011;60646;55.802;37.032;2022-08-21T11:08:35;10.48;;;6.47;;
67514;SDS011;60646;55.802;37.032;2022-08-21T11:11:27;10.32;;;6.60;;
67514;SDS011;60646;55.802;37.032;2022-08-21T11:14:04;9.40;;;6.13;;
67514;SDS011;60646;55.802;37.032;2022-08-21T11:19:33;11.00;;;5.13;;
67514;SDS011;60646;55.802;37.032;2022-08-21T11:24:42;9.00;;;4.55;;
67514;SDS011;60646;55.802;37.032;2022-08-21T11:27:36;7.97;;;4.13;;
67514;SDS011;60646;55.802;37.032;2022-08-21T11:30:07;9.00;;;4.30;;
67514;SDS011;60646;55.802;37.032;2022-08-21T11:38:42;8.48;;;3.95;;
67514;SDS011;60646;55.802;37.032;2022-08-21T11:41:32;15.75;;;4.15;;
67514;SDS011;60646;55.802;37.032;2022-08-21T11:54:34;5.80;;;3.13;;
67514;SDS011;60646;55.802;37.032;2022-08-21T11:59:59;7.40;;;3.00;;
67514;SDS011;60646;55.802;37.032;2022-08-21T12:02:41;5.85;;;2.60;;
67514;SDS011;60646;55.802;37.032;2022-08-21T12:05:11;5.85;;;2.17;;
67514;SDS011;60646;55.802;37.032;2022-08-21T12:08:05;5.07;;;2.72;;
67514;SDS011;60646;55.802;37.032;2022-08-21T12:10:42;6.55;;;2.10;;
67514;SDS011;60646;55.802;37.032;2022-08-21T12:13:25;3.03;;;1.38;;
67514;SDS011;60646;55.802;37.032;2022-08-21T12:16:04;3.72;;;1.70;;
67514;SDS011;60646;55.802;37.032;2022-08-21T12:18:31;4.95;;;2.22;;
67514;SDS011;60646;55.802;37.032;2022-08-21T12:21:01;4.32;;;1.70;;
67514;SDS011;60646;55.802;37.032;2022-08-21T12:23:58;2.65;;;1.50;;
67514;SDS011;60646;55.802;37.032;2022-08-21T12:26:34;4.70;;;1.83;;
67514;SDS011;60646;55.802;37.032;2022-08-21T12:29:14;3.75;;;1.70;;
67514;SDS011;60646;55.802;37.032;2022-08-21T12:31:50;4.05;;;1.73;;
67514;SDS011;60646;55.802;37.032;2022-08-21T12:34:44;10.60;;;2.42;;
67514;SDS011;60646;55.802;37.032;2022-08-21T12:39:49;5.30;;;1.88;;
67514;SDS011;60646;55.802;37.032;2022-08-21T12:42:22;5.15;;;1.90;;
67514;SDS011;60646;55.802;37.032;2022-08-21T12:44:54;5.88;;;2.30;;
67514;SDS011;60646;55.802;37.032;2022-08-21T12:50:42;4.97;;;2.08;;
67514;SDS011;60646;55.802;37.032;2022-08-21T12:53:21;5.72;;;2.08;;
67514;SDS011;60646;55.802;37.032;2022-08-21T12:55:53;3.38;;;2.03;;
67514;SDS011;60646;55.802;37.032;2022-08-21T12:58:25;10.95;;;2.05;;
67514;SDS011;60646;55.802;37.032;2022-08-21T13:00:52;5.25;;;2.25;;
67514;SDS011;60646;55.802;37.032;2022-08-21T13:03:21;4.78;;;2.00;;
67514;SDS011;60646;55.802;37.032;2022-08-21T13:05:48;6.20;;;2.15;;
67514;SDS011;60646;55.802;37.032;2022-08-21T13:08:18;3.20;;;1.70;;
67514;SDS011;60646;55.802;37.032;2022-08-21T13:10:46;7.57;;;1.50;;
67514;SDS011;60646;55.802;37.032;2022-08-21T13:13:19;7.05;;;1.90;;
67514;SDS011;60646;55.802;37.032;2022-08-21T13:15:47;3.58;;;1.38;;
67514;SDS011;60646;55.802;37.032;2022-08-21T13:18:25;8.90;;;2.08;;
67514;SDS011;60646;55.802;37.032;2022-08-21T13:23:30;5.25;;;1.83;;
67514;SDS011;60646;55.802;37.032;2022-08-21T13:25:56;9.68;;;1.88;;
67514;SDS011;60646;55.802;37.032;2022-08-21T13:28:23;6.75;;;1.83;;
67514;SDS011;60646;55.802;37.032;2022-08-21T13:30:53;3.28;;;1.35;;
67514;SDS011;60646;55.802;37.032;2022-08-21T13:33:22;3.97;;;1.42;;
67514;SDS011;60646;55.802;37.032;2022-08-21T13:38:23;5.03;;;1.60;;
67514;SDS011;60646;55.802;37.032;2022-08-21T13:40:59;3.83;;;1.15;;
67514;SDS011;60646;55.802;37.032;2022-08-21T13:43:34;6.28;;;1.85;;
67514;SDS011;60646;55.802;37.032;2022-08-21T13:46:01;7.22;;;1.83;;
67514;SDS011;60646;55.802;37.032;2022-08-21T13:48:33;3.58;;;1.20;;
67514;SDS011;60646;55.802;37.032;2022-08-21T13:51:00;4.43;;;1.52;;
67514;SDS011;60646;55.802;37.032;2022-08-21T13:53:34;6.60;;;1.60;;
67514;SDS011;60646;55.802;37.032;2022-08-21T13:56:01;5.90;;;1.50;;
67514;SDS011;60646;55.802;37.032;2022-08-21T13:58:41;5.38;;;1.30;;
67514;SDS011;60646;55.802;37.032;2022-08-21T14:01:17;2.65;;;1.35;;
67514;SDS011;60646;55.802;37.032;2022-08-21T14:03:47;6.30;;;1.55;;
67514;SDS011;60646;55.802;37.032;2022-08-21T14:06:16;10.60;;;1.70;;
67514;SDS011;60646;55.802;37.032;2022-08-21T14:11:54;4.65;;;1.55;;
67514;SDS011;60646;55.802;37.032;2022-08-21T14:14:24;7.38;;;1.90;;
67514;SDS011;60646;55.802;37.032;2022-08-21T14:17:00;6.32;;;1.90;;
67514;SDS011;60646;55.802;37.032;2022-08-21T14:19:37;7.18;;;1.80;;
67514;SDS011;60646;55.802;37.032;2022-08-21T14:22:21;7.18;;;2.00;;
67514;SDS011;60646;55.802;37.032;2022-08-21T14:25:02;4.70;;;1.85;;
67514;SDS011;60646;55.802;37.032;2022-08-21T14:27:31;3.13;;;1.65;;
67514;SDS011;60646;55.802;37.032;2022-08-21T14:30:00;4.78;;;1.95;;
67514;SDS011;60646;55.802;37.032;2022-08-21T14:32:30;4.80;;;2.20;;
67514;SDS011;60646;55.802;37.032;2022-08-21T14:35:02;3.83;;;2.08;;
67514;SDS011;60646;55.802;37.032;2022-08-21T14:37:28;3.67;;;2.20;;
67514;SDS011;60646;55.802;37.032;2022-08-21T14:39:54;6.78;;;1.90;;
67514;SDS011;60646;55.802;37.032;2022-08-21T14:42:20;5.10;;;2.35;;
67514;SDS011;60646;55.802;37.032;2022-08-21T14:44:46;5.50;;;2.00;;
67514;SDS011;60646;55.802;37.032;2022-08-21T14:47:12;3.80;;;2.22;;
67514;SDS011;60646;55.802;37.032;2022-08-21T14:49:38;3.55;;;2.05;;
67514;SDS011;60646;55.802;37.032;2022-08-21T14:52:04;3.53;;;1.77;;
67514;SDS011;60646;55.802;37.032;2022-08-21T14:54:39;3.10;;;1.60;;
67514;SDS011;60646;55.802;37.032;2022-08-21T14:57:09;4.32;;;1.60;;
67514;SDS011;60646;55.802;37.032;2022-08-21T14:59:40;4.70;;;1.70;;
67514;SDS011;60646;55.802;37.032;2022-08-21T15:02:09;7.57;;;1.73;;
67514;SDS011;60646;55.802;37.032;2022-08-21T15:04:38;3.47;;;1.50;;
67514;SDS011;60646;55.802;37.032;2022-08-21T15:07:06;2.92;;;1.60;;
67514;SDS011;60646;55.802;37.032;2022-08-21T15:09:33;5.45;;;1.50;;
67514;SDS011;60646;55.802;37.032;2022-08-21T15:12:00;8.95;;;2.10;;
67514;SDS011;60646;55.802;37.032;2022-08-21T15:14:28;3.97;;;1.40;;
67514;SDS011;60646;55.802;37.032;2022-08-21T15:16:56;3.47;;;1.33;;
67514;SDS011;60646;55.802;37.032;2022-08-21T15:19:22;3.20;;;1.60;;
67514;SDS011;60646;55.802;37.032;2022-08-21T15:21:48;4.65;;;1.38;;
67514;SDS011;60646;55.802;37.032;2022-08-21T15:24:14;3.92;;;1.60;;
67514;SDS011;60646;55.802;37.032;2022-08-21T15:26:40;5.88;;;1.60;;
67514;SDS011;60646;55.802;37.032;2022-08-21T15:29:09;3.38;;;1.50;;
67514;SDS011;60646;55.802;37.032;2022-08-21T15:31:35;4.30;;;1.70;;
67514;SDS011;60646;55.802;37.032;2022-08-21T15:34:02;5.35;;;2.17;;
67514;SDS011;60646;55.802;37.032;2022-08-21T15:36:29;5.40;;;2.40;;
67514;SDS011;60646;55.802;37.032;2022-08-21T15:38:55;2.63;;;2.03;;
67514;SDS011;60646;55.802;37.032;2022-08-21T15:41:20;4.97;;;2.20;;
67514;SDS011;60646;55.802;37.032;2022-08-21T15:43:50;3.88;;;1.85;;
67514;SDS011;60646;55.802;37.032;2022-08-21T15:46:19;3.58;;;2.03;;
67514;SDS011;60646;55.802;37.032;2022-08-21T15:48:45;6.50;;;2.17;;
67514;SDS011;60646;55.802;37.032;2022-08-21T15:51:12;4.13;;;2.75;;
67514;SDS011;60646;55.802;37.032;2022-08-21T15:53:39;5.18;;;2.40;;
67514;SDS011;60646;55.802;37.032;2022-08-21T15:56:06;4.78;;;2.75;;
67514;SDS011;60646;55.802;37.032;2022-08-21T15:58:52;3.90;;;2.30;;
67514;SDS011;60646;55.802;37.032;2022-08-21T16:01:23;6.00;;;2.53;;
67514;SDS011;60646;55.802;37.032;2022-08-21T16:03:49;3.72;;;2.22;;
67514;SDS011;60646;55.802;37.032;2022-08-21T16:06:17;5.03;;;2.38;;
67514;SDS011;60646;55.802;37.032;2022-08-21T16:08:42;6.80;;;2.50;;
67514;SDS011;60646;55.802;37.032;2022-08-21T16:11:08;3.92;;;2.38;;
67514;SDS011;60646;55.802;37.032;2022-08-21T16:13:38;6.20;;;2.22;;